sensor_id;sensor_type;location;lat;lon;timestamp;P1;durP1;ratioP1;P2;durP2;ratioP2
15555;SDS011;7879;48.660;9.116;2023-05-07T00:02:21;0.10;;;0.10;;
15555;SDS011;7879;48.660;9.116;2023-05-07T00:04:49;0.10;;;0.10;;
15555;SDS011;7879;48.660;9.116;2023-05-07T00:07:16;0.10;;;0.10;;
15555;SDS011;7879;48.660;9.116;2023-05-07T00:09:43;0.10;;;0.10;;
15555;SDS011;7879;48.660;9.116;2023-05-07T00:12:10;0.10;;;0.10;;
15555;SDS011;7879;48.660;9.116;2023-05-07T00:14:37;0.10;;;0.10;;
15555;SDS011;7879;48.660;9.116;2023-05-07T00:17:03;0.10;;;0.10;;
15555;SDS011;7879;48.660;9.116;2023-05-07T00:19:30;0.10;;;0.10;;
15555;SDS011;7879;48.660;9.116;2023-05-07T00:21:57;0.10;;;0.10;;
15555;SDS011;7879;48.660;9.116;2023-05-07T00:24:24;0.10;;;0.10;;
15555;SDS011;7879;48.660;9.116;2023-05-07T00:26:51;0.10;;;0.10;;
15555;SDS011;7879;48.660;9.116;2023-05-07T00:29:18;0.10;;;0.10;;
15555;SDS011;7879;48.660;9.116;2023-05-07T00:31:45;0.10;;;0.10;;
15555;SDS011;7879;48.660;9.116;2023-05-07T00:34:12;0.10;;;0.10;;
15555;SDS011;7879;48.660;9.116;2023-05-07T00:36:39;0.10;;;0.10;;
15555;SDS011;7879;48.660;9.116;2023-05-07T00:39:06;0.10;;;0.10;;
15555;SDS011;7879;48.660;9.116;2023-05-07T00:41:33;0.10;;;0.10;;
15555;SDS011;7879;48.660;9.116;2023-05-07T00:44:00;0.10;;;0.10;;
15555;SDS011;7879;48.660;9.116;2023-05-07T00:46:28;0.10;;;0.10;;
15555;SDS011;7879;48.660;9.116;2023-05-07T00:48:57;0.10;;;0.10;;
15555;SDS011;7879;48.660;9.116;2023-05-07T00:51:25;0.10;;;0.10;;
15555;SDS011;7879;48.660;9.116;2023-05-07T00:53:53;0.10;;;0.10;;
15555;SDS011;7879;48.660;9.116;2023-05-07T00:56:21;0.10;;;0.10;;
15555;SDS011;7879;48.660;9.116;2023-05-07T00:58:49;0.10;;;0.10;;
15555;SDS011;7879;48.660;9.116;2023-05-07T01:01:15;0.10;;;0.10;;
15555;SDS011;7879;48.660;9.116;2023-05-07T01:03:43;0.10;;;0.10;;
15555;SDS011;7879;48.660;9.116;2023-05-07T01:06:10;0.10;;;0.10;;
15555;SDS011;7879;48.660;9.116;2023-05-07T01:08:39;0.10;;;0.10;;
15555;SDS011;7879;48.660;9.116;2023-05-07T01:11:07;0.13;;;0.13;;
15555;SDS011;7879;48.660;9.116;2023-05-07T01:13:35;0.10;;;0.10;;
15555;SDS011;7879;48.660;9.116;2023-05-07T01:16:03;0.10;;;0.10;;
15555;SDS011;7879;48.660;9.116;2023-05-07T01:18:30;0.10;;;0.10;;
15555;SDS011;7879;48.660;9.116;2023-05-07T01:20:58;0.10;;;0.10;;
15555;SDS011;7879;48.660;9.116;2023-05-07T01:23:26;0.10;;;0.10;;
15555;SDS011;7879;48.660;9.116;2023-05-07T01:25:54;0.10;;;0.10;;
15555;SDS011;7879;48.660;9.116;2023-05-07T01:28:21;0.10;;;0.10;;
15555;SDS011;7879;48.660;9.116;2023-05-07T01:30:54;0.10;;;0.10;;
15555;SDS011;7879;48.660;9.116;2023-05-07T01:33:26;0.10;;;0.10;;
15555;SDS011;7879;48.660;9.116;2023-05-07T01:35:55;0.10;;;0.10;;
15555;SDS011;7879;48.660;9.116;2023-05-07T01:38:23;0.20;;;0.20;;
15555;SDS011;7879;48.660;9.116;2023-05-07T01:40:50;0.10;;;0.10;;
15555;SDS011;7879;48.660;9.116;2023-05-07T01:43:17;0.10;;;0.10;;
15555;SDS011;7879;48.660;9.116;2023-05-07T01:45:44;0.13;;;0.13;;
15555;SDS011;7879;48.660;9.116;2023-05-07T01:48:11;0.10;;;0.10;;
15555;SDS011;7879;48.660;9.116;2023-05-07T01:50:40;0.10;;;0.10;;
15555;SDS011;7879;48.660;9.116;2023-05-07T01:53:08;0.10;;;0.10;;
15555;SDS011;7879;48.660;9.116;2023-05-07T01:55:35;0.10;;;0.10;;
15555;SDS011;7879;48.660;9.116;2023-05-07T01:58:03;0.10;;;0.10;;
15555;SDS011;7879;48.660;9.116;2023-05-07T02:00:31;0.10;;;0.10;;
15555;SDS011;7879;48.660;9.116;2023-05-07T02:02:58;0.10;;;0.10;;
15555;SDS011;7879;48.660;9.116;2023-05-07T02:05:25;0.10;;;0.10;;
15555;SDS011;7879;48.660;9.116;2023-05-07T02:07:52;0.10;;;0.10;;
15555;SDS011;7879;48.660;9.116;2023-05-07T02:10:19;0.10;;;0.10;;
15555;SDS011;7879;48.660;9.116;2023-05-07T02:12:46;0.10;;;0.10;;
15555;SDS011;7879;48.660;9.116;2023-05-07T02:15:13;0.10;;;0.10;;
15555;SDS011;7879;48.660;9.116;2023-05-07T02:17:57;0.10;;;0.10;;
15555;SDS011;7879;48.660;9.116;2023-05-07T02:20:28;0.10;;;0.10;;
15555;SDS011;7879;48.660;9.116;2023-05-07T02:22:55;0.10;;;0.10;;
15555;SDS011;7879;48.660;9.116;2023-05-07T02:25:22;0.10;;;0.10;;
15555;SDS011;7879;48.660;9.116;2023-05-07T02:27:49;0.10;;;0.10;;
15555;SDS011;7879;48.660;9.116;2023-05-07T02:30:16;0.10;;;0.10;;
15555;SDS011;7879;48.660;9.116;2023-05-07T02:32:43;0.20;;;0.20;;
15555;SDS011;7879;48.660;9.116;2023-05-07T02:35:10;0.10;;;0.10;;
15555;SDS011;7879;48.660;9.116;2023-05-07T02:37:37;0.10;;;0.10;;
15555;SDS011;7879;48.660;9.116;2023-05-07T02:40:04;0.13;;;0.13;;
15555;SDS011;7879;48.660;9.116;2023-05-07T02:42:31;0.10;;;0.10;;
15555;SDS011;7879;48.660;9.116;2023-05-07T02:44:58;0.20;;;0.20;;
15555;SDS011;7879;48.660;9.116;2023-05-07T02:47:25;0.10;;;0.10;;
15555;SDS011;7879;48.660;9.116;2023-05-07T02:49:55;0.10;;;0.10;;
15555;SDS011;7879;48.660;9.116;2023-05-07T02:52:22;0.20;;;0.20;;
15555;SDS011;7879;48.660;9.116;2023-05-07T02:54:49;0.10;;;0.10;;
15555;SDS011;7879;48.660;9.116;2023-05-07T02:57:15;0.20;;;0.20;;
15555;SDS011;7879;48.660;9.116;2023-05-07T02:59:42;0.10;;;0.10;;
15555;SDS011;7879;48.660;9.116;2023-05-07T03:02:09;0.10;;;0.10;;
15555;SDS011;7879;48.660;9.116;2023-05-07T03:04:36;0.20;;;0.20;;
15555;SDS011;7879;48.660;9.116;2023-05-07T03:07:04;0.10;;;0.10;;
15555;SDS011;7879;48.660;9.116;2023-05-07T03:09:31;0.20;;;0.20;;
15555;SDS011;7879;48.660;9.116;2023-05-07T03:11:58;0.10;;;0.10;;
15555;SDS011;7879;48.660;9.116;2023-05-07T03:14:25;0.10;;;0.10;;
15555;SDS011;7879;48.660;9.116;2023-05-07T03:16:51;0.20;;;0.20;;
15555;SDS011;7879;48.660;9.116;2023-05-07T03:19:18;0.10;;;0.10;;
15555;SDS011;7879;48.660;9.116;2023-05-07T03:21:45;0.20;;;0.20;;
15555;SDS011;7879;48.660;9.116;2023-05-07T03:24:12;0.10;;;0.10;;
15555;SDS011;7879;48.660;9.116;2023-05-07T03:26:38;0.20;;;0.20;;
15555;SDS011;7879;48.660;9.116;2023-05-07T03:29:05;0.10;;;0.10;;
15555;SDS011;7879;48.660;9.116;2023-05-07T03:31:32;0.10;;;0.10;;
15555;SDS011;7879;48.660;9.116;2023-05-07T03:33:59;0.20;;;0.20;;
15555;SDS011;7879;48.660;9.116;2023-05-07T03:36:26;0.10;;;0.10;;
15555;SDS011;7879;48.660;9.116;2023-05-07T03:38:53;0.10;;;0.10;;
15555;SDS011;7879;48.660;9.116;2023-05-07T03:41:20;0.15;;;0.15;;
15555;SDS011;7879;48.660;9.116;2023-05-07T03:43:47;0.10;;;0.10;;
15555;SDS011;7879;48.660;9.116;2023-05-07T03:46:14;0.20;;;0.20;;
15555;SDS011;7879;48.660;9.116;2023-05-07T03:48:41;0.10;;;0.10;;
15555;SDS011;7879;48.660;9.116;2023-05-07T03:51:07;0.20;;;0.20;;
15555;SDS011;7879;48.660;9.116;2023-05-07T03:53:34;0.10;;;0.10;;
15555;SDS011;7879;48.660;9.116;2023-05-07T03:56:01;0.20;;;0.20;;
15555;SDS011;7879;48.660;9.116;2023-05-07T03:58:28;0.10;;;0.10;;
15555;SDS011;7879;48.660;9.116;2023-05-07T04:00:54;0.20;;;0.20;;
15555;SDS011;7879;48.660;9.116;2023-05-07T04:03:21;0.10;;;0.10;;
15555;SDS011;7879;48.660;9.116;2023-05-07T04:05:48;0.20;;;0.20;;
15555;SDS011;7879;48.660;9.116;2023-05-07T04:08:15;0.10;;;0.10;;
15555;SDS011;7879;48.660;9.116;2023-05-07T04:10:42;0.20;;;0.20;;
15555;SDS011;7879;48.660;9.116;2023-05-07T04:13:09;0.10;;;0.10;;
15555;SDS011;7879;48.660;9.116;2023-05-07T04:15:36;0.20;;;0.20;;
15555;SDS011;7879;48.660;9.116;2023-05-07T04:18:02;0.10;;;0.10;;
15555;SDS011;7879;48.660;9.116;2023-05-07T04:20:29;0.20;;;0.20;;
15555;SDS011;7879;48.660;9.116;2023-05-07T04:22:56;0.10;;;0.10;;
15555;SDS011;7879;48.660;9.116;2023-05-07T04:25:23;0.17;;;0.17;;
15555;SDS011;7879;48.660;9.116;2023-05-07T04:27:52;0.20;;;0.20;;
15555;SDS011;7879;48.660;9.116;2023-05-07T04:30:21;0.10;;;0.10;;
15555;SDS011;7879;48.660;9.116;2023-05-07T04:32:48;0.20;;;0.20;;
15555;SDS011;7879;48.660;9.116;2023-05-07T04:35:15;0.10;;;0.10;;
15555;SDS011;7879;48.660;9.116;2023-05-07T04:37:42;0.20;;;0.20;;
15555;SDS011;7879;48.660;9.116;2023-05-07T04:40:09;0.10;;;0.10;;
15555;SDS011;7879;48.660;9.116;2023-05-07T04:42:36;0.10;;;0.10;;
15555;SDS011;7879;48.660;9.116;2023-05-07T04:45:03;0.10;;;0.10;;
15555;SDS011;7879;48.660;9.116;2023-05-07T04:47:31;0.10;;;0.10;;
15555;SDS011;7879;48.660;9.116;2023-05-07T04:49:58;0.20;;;0.20;;
15555;SDS011;7879;48.660;9.116;2023-05-07T04:52:25;0.10;;;0.10;;
15555;SDS011;7879;48.660;9.116;2023-05-07T04:54:52;0.20;;;0.20;;
15555;SDS011;7879;48.660;9.116;2023-05-07T04:57:19;0.10;;;0.10;;
15555;SDS011;7879;48.660;9.116;2023-05-07T04:59:46;0.20;;;0.20;;
15555;SDS011;7879;48.660;9.116;2023-05-07T05:02:14;0.10;;;0.10;;
15555;SDS011;7879;48.660;9.116;2023-05-07T05:04:44;0.10;;;0.10;;
15555;SDS011;7879;48.660;9.116;2023-05-07T05:07:11;0.15;;;0.15;;
15555;SDS011;7879;48.660;9.116;2023-05-07T05:09:38;0.10;;;0.10;;
15555;SDS011;7879;48.660;9.116;2023-05-07T05:12:05;0.20;;;0.20;;
15555;SDS011;7879;48.660;9.116;2023-05-07T05:14:33;0.10;;;0.10;;
15555;SDS011;7879;48.660;9.116;2023-05-07T05:17:00;0.10;;;0.10;;
15555;SDS011;7879;48.660;9.116;2023-05-07T05:19:26;0.20;;;0.20;;
15555;SDS011;7879;48.660;9.116;2023-05-07T05:21:53;0.10;;;0.10;;
15555;SDS011;7879;48.660;9.116;2023-05-07T05:24:20;0.10;;;0.10;;
15555;SDS011;7879;48.660;9.116;2023-05-07T05:26:47;0.10;;;0.10;;
15555;SDS011;7879;48.660;9.116;2023-05-07T05:29:13;0.10;;;0.10;;
15555;SDS011;7879;48.660;9.116;2023-05-07T05:31:40;0.10;;;0.10;;
15555;SDS011;7879;48.660;9.116;2023-05-07T05:34:08;0.20;;;0.20;;
15555;SDS011;7879;48.660;9.116;2023-05-07T05:36:34;0.10;;;0.10;;
15555;SDS011;7879;48.660;9.116;2023-05-07T05:39:01;0.10;;;0.10;;
15555;SDS011;7879;48.660;9.116;2023-05-07T05:41:28;0.10;;;0.10;;
15555;SDS011;7879;48.660;9.116;2023-05-07T05:43:55;0.10;;;0.10;;
15555;SDS011;7879;48.660;9.116;2023-05-07T05:46:22;0.10;;;0.10;;
15555;SDS011;7879;48.660;9.116;2023-05-07T05:48:49;0.10;;;0.10;;
15555;SDS011;7879;48.660;9.116;2023-05-07T05:51:16;0.10;;;0.10;;
15555;SDS011;7879;48.660;9.116;2023-05-07T05:53:42;0.10;;;0.10;;
15555;SDS011;7879;48.660;9.116;2023-05-07T05:56:09;0.10;;;0.10;;
15555;SDS011;7879;48.660;9.116;2023-05-07T05:58:36;0.10;;;0.10;;
15555;SDS011;7879;48.660;9.116;2023-05-07T06:01:03;0.10;;;0.10;;
15555;SDS011;7879;48.660;9.116;2023-05-07T06:03:31;0.10;;;0.10;;
15555;SDS011;7879;48.660;9.116;2023-05-07T06:06:00;0.10;;;0.10;;
15555;SDS011;7879;48.660;9.116;2023-05-07T06:08:30;0.10;;;0.10;;
15555;SDS011;7879;48.660;9.116;2023-05-07T06:10:57;0.10;;;0.10;;
15555;SDS011;7879;48.660;9.116;2023-05-07T06:13:24;0.10;;;0.10;;
15555;SDS011;7879;48.660;9.116;2023-05-07T06:15:52;0.10;;;0.10;;
15555;SDS011;7879;48.660;9.116;2023-05-07T06:18:18;0.10;;;0.10;;
15555;SDS011;7879;48.660;9.116;2023-05-07T06:20:45;0.10;;;0.10;;
15555;SDS011;7879;48.660;9.116;2023-05-07T06:23:12;0.10;;;0.10;;
15555;SDS011;7879;48.660;9.116;2023-05-07T06:25:48;0.10;;;0.10;;
15555;SDS011;7879;48.660;9.116;2023-05-07T06:28:16;0.00;;;0.00;;
15555;SDS011;7879;48.660;9.116;2023-05-07T06:30:43;0.10;;;0.10;;
15555;SDS011;7879;48.660;9.116;2023-05-07T06:33:10;0.10;;;0.10;;
15555;SDS011;7879;48.660;9.116;2023-05-07T06:35:37;0.07;;;0.07;;
15555;SDS011;7879;48.660;9.116;2023-05-07T06:38:04;0.10;;;0.10;;
15555;SDS011;7879;48.660;9.116;2023-05-07T06:40:31;0.08;;;0.08;;
15555;SDS011;7879;48.660;9.116;2023-05-07T06:42:58;0.10;;;0.10;;
15555;SDS011;7879;48.660;9.116;2023-05-07T06:45:24;0.10;;;0.10;;
15555;SDS011;7879;48.660;9.116;2023-05-07T06:47:51;0.10;;;0.10;;
15555;SDS011;7879;48.660;9.116;2023-05-07T06:50:18;0.10;;;0.10;;
15555;SDS011;7879;48.660;9.116;2023-05-07T06:52:45;0.00;;;0.00;;
15555;SDS011;7879;48.660;9.116;2023-05-07T06:55:11;0.10;;;0.10;;
15555;SDS011;7879;48.660;9.116;2023-05-07T06:57:38;0.10;;;0.10;;
15555;SDS011;7879;48.660;9.116;2023-05-07T07:00:05;0.00;;;0.00;;
15555;SDS011;7879;48.660;9.116;2023-05-07T07:02:36;0.03;;;0.03;;
15555;SDS011;7879;48.660;9.116;2023-05-07T07:05:03;0.10;;;0.10;;
15555;SDS011;7879;48.660;9.116;2023-05-07T07:07:31;0.00;;;0.00;;
15555;SDS011;7879;48.660;9.116;2023-05-07T07:09:57;0.10;;;0.10;;
15555;SDS011;7879;48.660;9.116;2023-05-07T07:12:24;0.00;;;0.00;;
15555;SDS011;7879;48.660;9.116;2023-05-07T07:14:52;0.00;;;0.00;;
15555;SDS011;7879;48.660;9.116;2023-05-07T07:17:20;0.00;;;0.00;;
15555;SDS011;7879;48.660;9.116;2023-05-07T07:19:47;0.00;;;0.00;;
15555;SDS011;7879;48.660;9.116;2023-05-07T07:22:14;0.00;;;0.00;;
15555;SDS011;7879;48.660;9.116;2023-05-07T07:24:40;0.00;;;0.00;;
15555;SDS011;7879;48.660;9.116;2023-05-07T07:27:07;0.03;;;0.03;;
15555;SDS011;7879;48.660;9.116;2023-05-07T07:29:34;0.00;;;0.00;;
15555;SDS011;7879;48.660;9.116;2023-05-07T07:32:01;0.00;;;0.00;;
15555;SDS011;7879;48.660;9.116;2023-05-07T07:34:28;0.00;;;0.00;;
15555;SDS011;7879;48.660;9.116;2023-05-07T07:36:55;0.00;;;0.00;;
15555;SDS011;7879;48.660;9.116;2023-05-07T07:39:22;0.00;;;0.00;;
15555;SDS011;7879;48.660;9.116;2023-05-07T07:41:49;0.00;;;0.00;;
15555;SDS011;7879;48.660;9.116;2023-05-07T07:44:16;0.00;;;0.00;;
15555;SDS011;7879;48.660;9.116;2023-05-07T07:46:43;0.00;;;0.00;;
15555;SDS011;7879;48.660;9.116;2023-05-07T07:49:10;0.00;;;0.00;;
15555;SDS011;7879;48.660;9.116;2023-05-07T07:51:37;0.00;;;0.00;;
15555;SDS011;7879;48.660;9.116;2023-05-07T07:54:04;0.00;;;0.00;;
15555;SDS011;7879;48.660;9.116;2023-05-07T07:56:31;0.00;;;0.00;;
15555;SDS011;7879;48.660;9.116;2023-05-07T07:59:01;0.00;;;0.00;;
15555;SDS011;7879;48.660;9.116;2023-05-07T08:01:29;0.00;;;0.00;;
15555;SDS011;7879;48.660;9.116;2023-05-07T08:03:56;0.00;;;0.00;;
15555;SDS011;7879;48.660;9.116;2023-05-07T08:06:26;0.00;;;0.00;;
15555;SDS011;7879;48.660;9.116;2023-05-07T08:08:53;0.00;;;0.00;;
15555;SDS011;7879;48.660;9.116;2023-05-07T08:11:20;0.00;;;0.00;;
15555;SDS011;7879;48.660;9.116;2023-05-07T08:13:47;0.00;;;0.00;;
15555;SDS011;7879;48.660;9.116;2023-05-07T08:16:14;0.00;;;0.00;;
15555;SDS011;7879;48.660;9.116;2023-05-07T08:18:41;0.00;;;0.00;;
15555;SDS011;7879;48.660;9.116;2023-05-07T08:21:08;0.00;;;0.00;;
15555;SDS011;7879;48.660;9.116;2023-05-07T08:23:35;0.00;;;0.00;;
15555;SDS011;7879;48.660;9.116;2023-05-07T08:26:02;0.00;;;0.00;;
15555;SDS011;7879;48.660;9.116;2023-05-07T08:28:28;0.00;;;0.00;;
15555;SDS011;7879;48.660;9.116;2023-05-07T08:30:55;0.00;;;0.00;;
15555;SDS011;7879;48.660;9.116;2023-05-07T08:33:22;0.00;;;0.00;;
15555;SDS011;7879;48.660;9.116;2023-05-07T08:35:49;0.00;;;0.00;;
15555;SDS011;7879;48.660;9.116;2023-05-07T08:38:16;0.00;;;0.00;;
15555;SDS011;7879;48.660;9.116;2023-05-07T08:40:43;0.00;;;0.00;;
15555;SDS011;7879;48.660;9.116;2023-05-07T08:43:13;0.00;;;0.00;;
15555;SDS011;7879;48.660;9.116;2023-05-07T08:45:41;0.00;;;0.00;;
15555;SDS011;7879;48.660;9.116;2023-05-07T08:48:17;0.00;;;0.00;;
15555;SDS011;7879;48.660;9.116;2023-05-07T08:50:44;0.00;;;0.00;;
15555;SDS011;7879;48.660;9.116;2023-05-07T08:53:11;0.00;;;0.00;;
15555;SDS011;7879;48.660;9.116;2023-05-07T08:55:38;0.00;;;0.00;;
15555;SDS011;7879;48.660;9.116;2023-05-07T08:58:05;0.00;;;0.00;;
15555;SDS011;7879;48.660;9.116;2023-05-07T09:00:33;0.00;;;0.00;;
15555;SDS011;7879;48.660;9.116;2023-05-07T09:03:01;0.00;;;0.00;;
15555;SDS011;7879;48.660;9.116;2023-05-07T09:05:28;0.00;;;0.00;;
15555;SDS011;7879;48.660;9.116;2023-05-07T09:07:54;0.00;;;0.00;;
15555;SDS011;7879;48.660;9.116;2023-05-07T09:10:23;0.00;;;0.00;;
15555;SDS011;7879;48.660;9.116;2023-05-07T09:12:51;0.00;;;0.00;;
15555;SDS011;7879;48.660;9.116;2023-05-07T09:15:18;0.00;;;0.00;;
15555;SDS011;7879;48.660;9.116;2023-05-07T09:17:45;0.00;;;0.00;;
15555;SDS011;7879;48.660;9.116;2023-05-07T09:20:12;0.00;;;0.00;;
15555;SDS011;7879;48.660;9.116;2023-05-07T09:22:39;0.00;;;0.00;;
15555;SDS011;7879;48.660;9.116;2023-05-07T09:25:06;0.00;;;0.00;;
15555;SDS011;7879;48.660;9.116;2023-05-07T09:27:34;0.00;;;0.00;;
15555;SDS011;7879;48.660;9.116;2023-05-07T09:30:05;0.00;;;0.00;;
15555;SDS011;7879;48.660;9.116;2023-05-07T09:32:36;0.00;;;0.00;;
15555;SDS011;7879;48.660;9.116;2023-05-07T09:35:18;0.00;;;0.00;;
15555;SDS011;7879;48.660;9.116;2023-05-07T09:37:47;0.00;;;0.00;;
15555;SDS011;7879;48.660;9.116;2023-05-07T09:40:24;0.00;;;0.00;;
15555;SDS011;7879;48.660;9.116;2023-05-07T09:42:52;0.00;;;0.00;;
15555;SDS011;7879;48.660;9.116;2023-05-07T09:45:26;0.00;;;0.00;;
15555;SDS011;7879;48.660;9.116;2023-05-07T09:47:54;0.00;;;0.00;;
15555;SDS011;7879;48.660;9.116;2023-05-07T09:50:30;0.00;;;0.00;;
15555;SDS011;7879;48.660;9.116;2023-05-07T09:53:03;0.00;;;0.00;;
15555;SDS011;7879;48.660;9.116;2023-05-07T09:55:30;0.00;;;0.00;;
15555;SDS011;7879;48.660;9.116;2023-05-07T09:57:57;0.00;;;0.00;;
15555;SDS011;7879;48.660;9.116;2023-05-07T10:00:25;0.00;;;0.00;;
15555;SDS011;7879;48.660;9.116;2023-05-07T10:02:54;0.00;;;0.00;;
15555;SDS011;7879;48.660;9.116;2023-05-07T10:05:23;0.00;;;0.00;;
15555;SDS011;7879;48.660;9.116;2023-05-07T10:07:51;0.00;;;0.00;;
15555;SDS011;7879;48.660;9.116;2023-05-07T10:10:19;0.00;;;0.00;;
15555;SDS011;7879;48.660;9.116;2023-05-07T10:12:46;0.00;;;0.00;;
15555;SDS011;7879;48.660;9.116;2023-05-07T10:15:13;0.00;;;0.00;;
15555;SDS011;7879;48.660;9.116;2023-05-07T10:17:40;0.00;;;0.00;;
15555;SDS011;7879;48.660;9.116;2023-05-07T10:20:07;0.00;;;0.00;;
15555;SDS011;7879;48.660;9.116;2023-05-07T10:22:38;0.00;;;0.00;;
15555;SDS011;7879;48.660;9.116;2023-05-07T10:25:13;0.00;;;0.00;;
15555;SDS011;7879;48.660;9.116;2023-05-07T10:28:04;0.00;;;0.00;;
15555;SDS011;7879;48.660;9.116;2023-05-07T10:33:04;0.00;;;0.00;;
15555;SDS011;7879;48.660;9.116;2023-05-07T10:35:42;0.00;;;0.00;;
15555;SDS011;7879;48.660;9.116;2023-05-07T10:38:11;0.00;;;0.00;;
15555;SDS011;7879;48.660;9.116;2023-05-07T10:40:38;0.00;;;0.00;;
15555;SDS011;7879;48.660;9.116;2023-05-07T10:43:05;0.00;;;0.00;;
15555;SDS011;7879;48.660;9.116;2023-05-07T10:45:36;0.00;;;0.00;;
15555;SDS011;7879;48.660;9.116;2023-05-07T10:48:06;0.00;;;0.00;;
15555;SDS011;7879;48.660;9.116;2023-05-07T10:50:43;0.00;;;0.00;;
15555;SDS011;7879;48.660;9.116;2023-05-07T10:55:48;0.00;;;0.00;;
15555;SDS011;7879;48.660;9.116;2023-05-07T10:58:28;0.00;;;0.00;;
15555;SDS011;7879;48.660;9.116;2023-05-07T11:00:59;0.00;;;0.00;;
15555;SDS011;7879;48.660;9.116;2023-05-07T11:03:29;0.00;;;0.00;;
15555;SDS011;7879;48.660;9.116;2023-05-07T11:06:13;0.00;;;0.00;;
15555;SDS011;7879;48.660;9.116;2023-05-07T11:17:09;0.00;;;0.00;;
15555;SDS011;7879;48.660;9.116;2023-05-07T11:19:52;0.00;;;0.00;;
15555;SDS011;7879;48.660;9.116;2023-05-07T11:24:59;0.00;;;0.00;;
15555;SDS011;7879;48.660;9.116;2023-05-07T11:27:29;0.00;;;0.00;;
15555;SDS011;7879;48.660;9.116;2023-05-07T11:29:56;0.00;;;0.00;;
15555;SDS011;7879;48.660;9.116;2023-05-07T11:32:23;0.00;;;0.00;;
15555;SDS011;7879;48.660;9.116;2023-05-07T11:34:53;0.00;;;0.00;;
15555;SDS011;7879;48.660;9.116;2023-05-07T11:37:21;0.00;;;0.00;;
15555;SDS011;7879;48.660;9.116;2023-05-07T11:39:50;0.00;;;0.00;;
15555;SDS011;7879;48.660;9.116;2023-05-07T11:44:56;0.00;;;0.00;;
15555;SDS011;7879;48.660;9.116;2023-05-07T11:47:23;0.00;;;0.00;;
15555;SDS011;7879;48.660;9.116;2023-05-07T11:49:52;0.00;;;0.00;;
15555;SDS011;7879;48.660;9.116;2023-05-07T11:52:20;0.00;;;0.00;;
15555;SDS011;7879;48.660;9.116;2023-05-07T11:54:51;0.00;;;0.00;;
15555;SDS011;7879;48.660;9.116;2023-05-07T11:57:19;0.00;;;0.00;;
15555;SDS011;7879;48.660;9.116;2023-05-07T11:59:46;0.00;;;0.00;;
15555;SDS011;7879;48.660;9.116;2023-05-07T12:02:17;0.00;;;0.00;;
15555;SDS011;7879;48.660;9.116;2023-05-07T12:04:44;0.00;;;0.00;;
15555;SDS011;7879;48.660;9.116;2023-05-07T12:07:11;0.00;;;0.00;;
15555;SDS011;7879;48.660;9.116;2023-05-07T12:09:40;0.00;;;0.00;;
15555;SDS011;7879;48.660;9.116;2023-05-07T12:12:11;0.00;;;0.00;;
15555;SDS011;7879;48.660;9.116;2023-05-07T12:14:39;0.00;;;0.00;;
15555;SDS011;7879;48.660;9.116;2023-05-07T12:17:09;0.00;;;0.00;;
15555;SDS011;7879;48.660;9.116;2023-05-07T12:19:44;0.00;;;0.00;;
15555;SDS011;7879;48.660;9.116;2023-05-07T12:22:14;0.00;;;0.00;;
15555;SDS011;7879;48.660;9.116;2023-05-07T12:24:45;0.00;;;0.00;;
15555;SDS011;7879;48.660;9.116;2023-05-07T12:27:14;0.00;;;0.00;;
15555;SDS011;7879;48.660;9.116;2023-05-07T12:29:48;0.00;;;0.00;;
15555;SDS011;7879;48.660;9.116;2023-05-07T12:32:21;0.03;;;0.03;;
15555;SDS011;7879;48.660;9.116;2023-05-07T12:34:49;0.10;;;0.10;;
15555;SDS011;7879;48.660;9.116;2023-05-07T12:43:42;0.10;;;0.10;;
15555;SDS011;7879;48.660;9.116;2023-05-07T12:46:16;0.10;;;0.10;;
15555;SDS011;7879;48.660;9.116;2023-05-07T12:48:49;0.00;;;0.00;;
15555;SDS011;7879;48.660;9.116;2023-05-07T12:51:21;0.10;;;0.10;;
15555;SDS011;7879;48.660;9.116;2023-05-07T12:53:49;0.10;;;0.10;;
15555;SDS011;7879;48.660;9.116;2023-05-07T12:56:16;0.10;;;0.10;;
15555;SDS011;7879;48.660;9.116;2023-05-07T12:58:45;0.10;;;0.10;;
15555;SDS011;7879;48.660;9.116;2023-05-07T13:01:15;0.10;;;0.10;;
15555;SDS011;7879;48.660;9.116;2023-05-07T13:03:48;0.10;;;0.10;;
15555;SDS011;7879;48.660;9.116;2023-05-07T13:06:16;0.10;;;0.10;;
15555;SDS011;7879;48.660;9.116;2023-05-07T13:08:43;0.10;;;0.10;;
15555;SDS011;7879;48.660;9.116;2023-05-07T13:11:10;0.10;;;0.10;;
15555;SDS011;7879;48.660;9.116;2023-05-07T13:13:38;0.10;;;0.10;;
15555;SDS011;7879;48.660;9.116;2023-05-07T13:16:07;0.10;;;0.10;;
15555;SDS011;7879;48.660;9.116;2023-05-07T13:18:37;0.10;;;0.10;;
15555;SDS011;7879;48.660;9.116;2023-05-07T13:21:05;0.10;;;0.10;;
15555;SDS011;7879;48.660;9.116;2023-05-07T13:23:32;0.10;;;0.10;;
15555;SDS011;7879;48.660;9.116;2023-05-07T13:25:59;0.10;;;0.10;;
15555;SDS011;7879;48.660;9.116;2023-05-07T13:28:36;0.10;;;0.10;;
15555;SDS011;7879;48.660;9.116;2023-05-07T13:31:03;0.10;;;0.10;;
15555;SDS011;7879;48.660;9.116;2023-05-07T13:33:30;0.10;;;0.10;;
15555;SDS011;7879;48.660;9.116;2023-05-07T13:35:57;0.10;;;0.10;;
15555;SDS011;7879;48.660;9.116;2023-05-07T13:38:24;0.10;;;0.10;;
15555;SDS011;7879;48.660;9.116;2023-05-07T13:40:51;0.10;;;0.10;;
15555;SDS011;7879;48.660;9.116;2023-05-07T13:43:17;0.10;;;0.10;;
15555;SDS011;7879;48.660;9.116;2023-05-07T13:45:45;0.10;;;0.10;;
15555;SDS011;7879;48.660;9.116;2023-05-07T13:48:12;0.10;;;0.10;;
15555;SDS011;7879;48.660;9.116;2023-05-07T13:50:39;0.10;;;0.10;;
15555;SDS011;7879;48.660;9.116;2023-05-07T13:53:07;0.10;;;0.10;;
15555;SDS011;7879;48.660;9.116;2023-05-07T13:55:34;0.10;;;0.10;;
15555;SDS011;7879;48.660;9.116;2023-05-07T13:58:01;0.00;;;0.00;;
15555;SDS011;7879;48.660;9.116;2023-05-07T14:00:32;0.10;;;0.10;;
15555;SDS011;7879;48.660;9.116;2023-05-07T14:02:59;0.10;;;0.10;;
15555;SDS011;7879;48.660;9.116;2023-05-07T14:05:26;0.10;;;0.10;;
15555;SDS011;7879;48.660;9.116;2023-05-07T14:07:54;0.10;;;0.10;;
15555;SDS011;7879;48.660;9.116;2023-05-07T14:10:23;0.10;;;0.10;;
15555;SDS011;7879;48.660;9.116;2023-05-07T14:12:50;0.10;;;0.10;;
15555;SDS011;7879;48.660;9.116;2023-05-07T14:15:21;0.10;;;0.10;;
15555;SDS011;7879;48.660;9.116;2023-05-07T14:17:47;0.10;;;0.10;;
15555;SDS011;7879;48.660;9.116;2023-05-07T14:20:14;0.10;;;0.10;;
15555;SDS011;7879;48.660;9.116;2023-05-07T14:22:41;0.10;;;0.10;;
15555;SDS011;7879;48.660;9.116;2023-05-07T14:25:08;0.00;;;0.00;;
15555;SDS011;7879;48.660;9.116;2023-05-07T14:27:36;0.10;;;0.10;;
15555;SDS011;7879;48.660;9.116;2023-05-07T14:30:03;0.10;;;0.10;;
15555;SDS011;7879;48.660;9.116;2023-05-07T14:32:30;0.10;;;0.10;;
15555;SDS011;7879;48.660;9.116;2023-05-07T14:34:57;0.10;;;0.10;;
15555;SDS011;7879;48.660;9.116;2023-05-07T14:37:24;0.10;;;0.10;;
15555;SDS011;7879;48.660;9.116;2023-05-07T14:39:51;0.10;;;0.10;;
15555;SDS011;7879;48.660;9.116;2023-05-07T14:42:18;0.10;;;0.10;;
15555;SDS011;7879;48.660;9.116;2023-05-07T14:44:44;0.10;;;0.10;;
15555;SDS011;7879;48.660;9.116;2023-05-07T14:47:12;0.10;;;0.10;;
15555;SDS011;7879;48.660;9.116;2023-05-07T14:49:39;0.10;;;0.10;;
15555;SDS011;7879;48.660;9.116;2023-05-07T14:52:07;0.05;;;0.05;;
15555;SDS011;7879;48.660;9.116;2023-05-07T14:54:36;0.10;;;0.10;;
15555;SDS011;7879;48.660;9.116;2023-05-07T14:57:05;0.10;;;0.10;;
15555;SDS011;7879;48.660;9.116;2023-05-07T14:59:32;0.10;;;0.10;;
15555;SDS011;7879;48.660;9.116;2023-05-07T15:02:00;0.10;;;0.10;;
15555;SDS011;7879;48.660;9.116;2023-05-07T15:04:32;0.10;;;0.10;;
15555;SDS011;7879;48.660;9.116;2023-05-07T15:06:59;0.10;;;0.10;;
15555;SDS011;7879;48.660;9.116;2023-05-07T15:09:26;0.00;;;0.00;;
15555;SDS011;7879;48.660;9.116;2023-05-07T15:11:53;0.10;;;0.10;;
15555;SDS011;7879;48.660;9.116;2023-05-07T15:14:20;0.10;;;0.10;;
15555;SDS011;7879;48.660;9.116;2023-05-07T15:16:48;0.10;;;0.10;;
15555;SDS011;7879;48.660;9.116;2023-05-07T15:19:16;0.00;;;0.00;;
15555;SDS011;7879;48.660;9.116;2023-05-07T15:21:43;0.10;;;0.10;;
15555;SDS011;7879;48.660;9.116;2023-05-07T15:24:10;0.10;;;0.10;;
15555;SDS011;7879;48.660;9.116;2023-05-07T15:26:37;0.08;;;0.08;;
15555;SDS011;7879;48.660;9.116;2023-05-07T15:29:04;0.10;;;0.10;;
15555;SDS011;7879;48.660;9.116;2023-05-07T15:31:36;0.00;;;0.00;;